<?xml version="1.0" encoding="UTF-8" standalone="no" ?>
<gpx xmlns="http://www.topografix.com/GPX/1/1" xmlns:xsi="http://www.w3.org/2001/XMLSchema-instance" xsi:schemaLocation="http://www.topografix.com/GPX/1/1 http://www.topografix.com/GPX/1/1/gpx.xsd" version="1.1" creator="VisuGPX - https://www.visugpx.com">
  <metadata>
    <name>LE KAYMARD</name>
    <desc><![CDATA[7KM A FAIRE PAR TOUS]]></desc>
  </metadata>
  <wpt lat="44.54854" lon="2.48809">
    <ele>665</ele>
  </wpt>
  <wpt lat="44.54855" lon="2.48782">
    <ele>666</ele>
  </wpt>
  <trk>
    <name><![CDATA[LE KAYMARD_1]]></name>
    <trkseg>
      <trkpt lat="44.54854" lon="2.48809">
        <ele>665</ele>
        <time>2012-09-18T12:05:05Z</time>
      </trkpt>
      <trkpt lat="44.5486" lon="2.48798">
        <ele>665</ele>
        <time>2012-09-18T12:05:08Z</time>
      </trkpt>
      <trkpt lat="44.54867" lon="2.48787">
        <ele>656</ele>
        <time>2012-09-18T12:05:12Z</time>
      </trkpt>
      <trkpt lat="44.54857" lon="2.48786">
        <ele>661</ele>
        <time>2012-09-18T12:09:06Z</time>
      </trkpt>
      <trkpt lat="44.54847" lon="2.48782">
        <ele>661</ele>
        <time>2012-09-18T12:09:22Z</time>
      </trkpt>
      <trkpt lat="44.54838" lon="2.4878">
        <ele>661</ele>
        <time>2012-09-18T12:09:33Z</time>
      </trkpt>
      <trkpt lat="44.54828" lon="2.48778">
        <ele>661</ele>
        <time>2012-09-18T12:09:48Z</time>
      </trkpt>
      <trkpt lat="44.54818" lon="2.48774">
        <ele>661</ele>
        <time>2012-09-18T12:09:59Z</time>
      </trkpt>
      <trkpt lat="44.54808" lon="2.4877">
        <ele>661</ele>
        <time>2012-09-18T12:10:08Z</time>
      </trkpt>
      <trkpt lat="44.54799" lon="2.48765">
        <ele>667</ele>
        <time>2012-09-18T12:10:18Z</time>
      </trkpt>
      <trkpt lat="44.5479" lon="2.48759">
        <ele>667</ele>
        <time>2012-09-18T12:10:30Z</time>
      </trkpt>
      <trkpt lat="44.54798" lon="2.48749">
        <ele>667</ele>
        <time>2012-09-18T12:11:12Z</time>
      </trkpt>
      <trkpt lat="44.5479" lon="2.48742">
        <ele>654</ele>
        <time>2012-09-18T12:11:22Z</time>
      </trkpt>
      <trkpt lat="44.54783" lon="2.48731">
        <ele>654</ele>
        <time>2012-09-18T12:11:37Z</time>
      </trkpt>
      <trkpt lat="44.54776" lon="2.48722">
        <ele>661</ele>
        <time>2012-09-18T12:11:49Z</time>
      </trkpt>
      <trkpt lat="44.54772" lon="2.48709">
        <ele>661</ele>
        <time>2012-09-18T12:11:56Z</time>
      </trkpt>
      <trkpt lat="44.54767" lon="2.48696">
        <ele>661</ele>
        <time>2012-09-18T12:12:05Z</time>
      </trkpt>
      <trkpt lat="44.54764" lon="2.48683">
        <ele>661</ele>
        <time>2012-09-18T12:12:14Z</time>
      </trkpt>
      <trkpt lat="44.54759" lon="2.48671">
        <ele>673</ele>
        <time>2012-09-18T12:12:22Z</time>
      </trkpt>
      <trkpt lat="44.54756" lon="2.48658">
        <ele>673</ele>
        <time>2012-09-18T12:12:29Z</time>
      </trkpt>
      <trkpt lat="44.54754" lon="2.48646">
        <ele>673</ele>
        <time>2012-09-18T12:12:39Z</time>
      </trkpt>
      <trkpt lat="44.54749" lon="2.48633">
        <ele>673</ele>
        <time>2012-09-18T12:12:53Z</time>
      </trkpt>
      <trkpt lat="44.54747" lon="2.4862">
        <ele>673</ele>
        <time>2012-09-18T12:12:58Z</time>
      </trkpt>
      <trkpt lat="44.54744" lon="2.48606">
        <ele>673</ele>
        <time>2012-09-18T12:13:10Z</time>
      </trkpt>
      <trkpt lat="44.54741" lon="2.48593">
        <ele>673</ele>
        <time>2012-09-18T12:13:20Z</time>
      </trkpt>
      <trkpt lat="44.54738" lon="2.4858">
        <ele>673</ele>
        <time>2012-09-18T12:13:30Z</time>
      </trkpt>
      <trkpt lat="44.54736" lon="2.48566">
        <ele>673</ele>
        <time>2012-09-18T12:13:39Z</time>
      </trkpt>
      <trkpt lat="44.54734" lon="2.48552">
        <ele>673</ele>
        <time>2012-09-18T12:13:58Z</time>
      </trkpt>
      <trkpt lat="44.5473" lon="2.48539">
        <ele>673</ele>
        <time>2012-09-18T12:14:07Z</time>
      </trkpt>
      <trkpt lat="44.54725" lon="2.48527">
        <ele>673</ele>
        <time>2012-09-18T12:14:14Z</time>
      </trkpt>
      <trkpt lat="44.54723" lon="2.48514">
        <ele>673</ele>
        <time>2012-09-18T12:14:26Z</time>
      </trkpt>
      <trkpt lat="44.54719" lon="2.485">
        <ele>673</ele>
        <time>2012-09-18T12:14:32Z</time>
      </trkpt>
      <trkpt lat="44.54716" lon="2.48487">
        <ele>678</ele>
        <time>2012-09-18T12:14:38Z</time>
      </trkpt>
      <trkpt lat="44.54713" lon="2.48474">
        <ele>678</ele>
        <time>2012-09-18T12:14:46Z</time>
      </trkpt>
      <trkpt lat="44.54709" lon="2.48461">
        <ele>684</ele>
        <time>2012-09-18T12:15:00Z</time>
      </trkpt>
      <trkpt lat="44.54707" lon="2.48447">
        <ele>684</ele>
        <time>2012-09-18T12:15:12Z</time>
      </trkpt>
      <trkpt lat="44.54702" lon="2.48435">
        <ele>667</ele>
        <time>2012-09-18T12:15:33Z</time>
      </trkpt>
      <trkpt lat="44.547" lon="2.4842">
        <ele>673</ele>
        <time>2012-09-18T12:15:39Z</time>
      </trkpt>
      <trkpt lat="44.54695" lon="2.48407">
        <ele>673</ele>
        <time>2012-09-18T12:15:46Z</time>
      </trkpt>
      <trkpt lat="44.54691" lon="2.48393">
        <ele>673</ele>
        <time>2012-09-18T12:15:55Z</time>
      </trkpt>
      <trkpt lat="44.54689" lon="2.4838">
        <ele>673</ele>
        <time>2012-09-18T12:16:03Z</time>
      </trkpt>
      <trkpt lat="44.54687" lon="2.48366">
        <ele>684</ele>
        <time>2012-09-18T12:16:11Z</time>
      </trkpt>
      <trkpt lat="44.54684" lon="2.48353">
        <ele>684</ele>
        <time>2012-09-18T12:16:19Z</time>
      </trkpt>
      <trkpt lat="44.54682" lon="2.48338">
        <ele>684</ele>
        <time>2012-09-18T12:16:31Z</time>
      </trkpt>
      <trkpt lat="44.54676" lon="2.48325">
        <ele>684</ele>
        <time>2012-09-18T12:16:46Z</time>
      </trkpt>
      <trkpt lat="44.54673" lon="2.48311">
        <ele>684</ele>
        <time>2012-09-18T12:16:58Z</time>
      </trkpt>
      <trkpt lat="44.5467" lon="2.48298">
        <ele>684</ele>
        <time>2012-09-18T12:17:07Z</time>
      </trkpt>
      <trkpt lat="44.54666" lon="2.48285">
        <ele>692</ele>
        <time>2012-09-18T12:17:17Z</time>
      </trkpt>
      <trkpt lat="44.54663" lon="2.48273">
        <ele>692</ele>
        <time>2012-09-18T12:17:39Z</time>
      </trkpt>
      <trkpt lat="44.5466" lon="2.48259">
        <ele>692</ele>
        <time>2012-09-18T12:17:50Z</time>
      </trkpt>
      <trkpt lat="44.54659" lon="2.48246">
        <ele>692</ele>
        <time>2012-09-18T12:18:02Z</time>
      </trkpt>
      <trkpt lat="44.54656" lon="2.48233">
        <ele>692</ele>
        <time>2012-09-18T12:18:12Z</time>
      </trkpt>
      <trkpt lat="44.54655" lon="2.4822">
        <ele>698</ele>
        <time>2012-09-18T12:18:22Z</time>
      </trkpt>
      <trkpt lat="44.54653" lon="2.48206">
        <ele>698</ele>
        <time>2012-09-18T12:18:33Z</time>
      </trkpt>
      <trkpt lat="44.54654" lon="2.48193">
        <ele>698</ele>
        <time>2012-09-18T12:18:47Z</time>
      </trkpt>
      <trkpt lat="44.54653" lon="2.48179">
        <ele>698</ele>
        <time>2012-09-18T12:19:00Z</time>
      </trkpt>
      <trkpt lat="44.54654" lon="2.48165">
        <ele>693</ele>
        <time>2012-09-18T12:19:12Z</time>
      </trkpt>
      <trkpt lat="44.54653" lon="2.48151">
        <ele>693</ele>
        <time>2012-09-18T12:19:22Z</time>
      </trkpt>
      <trkpt lat="44.54652" lon="2.48137">
        <ele>693</ele>
        <time>2012-09-18T12:19:33Z</time>
      </trkpt>
      <trkpt lat="44.54653" lon="2.48123">
        <ele>700</ele>
        <time>2012-09-18T12:19:43Z</time>
      </trkpt>
      <trkpt lat="44.54651" lon="2.48108">
        <ele>700</ele>
        <time>2012-09-18T12:19:52Z</time>
      </trkpt>
      <trkpt lat="44.5465" lon="2.48095">
        <ele>706</ele>
        <time>2012-09-18T12:20:01Z</time>
      </trkpt>
      <trkpt lat="44.54648" lon="2.48081">
        <ele>706</ele>
        <time>2012-09-18T12:20:12Z</time>
      </trkpt>
      <trkpt lat="44.54647" lon="2.48067">
        <ele>699</ele>
        <time>2012-09-18T12:20:26Z</time>
      </trkpt>
      <trkpt lat="44.5465" lon="2.48055">
        <ele>699</ele>
        <time>2012-09-18T12:21:34Z</time>
      </trkpt>
      <trkpt lat="44.54652" lon="2.48041">
        <ele>699</ele>
        <time>2012-09-18T12:21:43Z</time>
      </trkpt>
      <trkpt lat="44.54651" lon="2.48027">
        <ele>699</ele>
        <time>2012-09-18T12:21:55Z</time>
      </trkpt>
      <trkpt lat="44.54651" lon="2.48013">
        <ele>699</ele>
        <time>2012-09-18T12:22:04Z</time>
      </trkpt>
      <trkpt lat="44.54652" lon="2.47998">
        <ele>699</ele>
        <time>2012-09-18T12:22:16Z</time>
      </trkpt>
      <trkpt lat="44.5465" lon="2.47983">
        <ele>706</ele>
        <time>2012-09-18T12:22:26Z</time>
      </trkpt>
      <trkpt lat="44.54649" lon="2.47968">
        <ele>706</ele>
        <time>2012-09-18T12:22:37Z</time>
      </trkpt>
      <trkpt lat="44.54647" lon="2.47955">
        <ele>698</ele>
        <time>2012-09-18T12:22:50Z</time>
      </trkpt>
      <trkpt lat="44.54646" lon="2.47941">
        <ele>698</ele>
        <time>2012-09-18T12:22:58Z</time>
      </trkpt>
      <trkpt lat="44.54644" lon="2.47926">
        <ele>698</ele>
        <time>2012-09-18T12:23:09Z</time>
      </trkpt>
      <trkpt lat="44.54644" lon="2.47912">
        <ele>698</ele>
        <time>2012-09-18T12:23:16Z</time>
      </trkpt>
      <trkpt lat="44.54644" lon="2.47897">
        <ele>698</ele>
        <time>2012-09-18T12:23:27Z</time>
      </trkpt>
      <trkpt lat="44.54643" lon="2.47884">
        <ele>698</ele>
        <time>2012-09-18T12:23:37Z</time>
      </trkpt>
      <trkpt lat="44.54643" lon="2.4787">
        <ele>698</ele>
        <time>2012-09-18T12:23:47Z</time>
      </trkpt>
      <trkpt lat="44.54645" lon="2.47857">
        <ele>690</ele>
        <time>2012-09-18T12:24:03Z</time>
      </trkpt>
      <trkpt lat="44.54642" lon="2.47843">
        <ele>690</ele>
        <time>2012-09-18T12:24:10Z</time>
      </trkpt>
      <trkpt lat="44.54641" lon="2.4783">
        <ele>690</ele>
        <time>2012-09-18T12:24:25Z</time>
      </trkpt>
      <trkpt lat="44.54639" lon="2.47816">
        <ele>690</ele>
        <time>2012-09-18T12:24:49Z</time>
      </trkpt>
      <trkpt lat="44.54634" lon="2.47805">
        <ele>690</ele>
        <time>2012-09-18T12:24:58Z</time>
      </trkpt>
      <trkpt lat="44.54631" lon="2.47792">
        <ele>690</ele>
        <time>2012-09-18T12:25:08Z</time>
      </trkpt>
      <trkpt lat="44.54627" lon="2.4778">
        <ele>690</ele>
        <time>2012-09-18T12:25:18Z</time>
      </trkpt>
      <trkpt lat="44.54631" lon="2.47792">
        <ele>690</ele>
        <time>2012-09-18T12:27:17Z</time>
      </trkpt>
      <trkpt lat="44.54634" lon="2.47807">
        <ele>690</ele>
        <time>2012-09-18T12:27:35Z</time>
      </trkpt>
      <trkpt lat="44.54639" lon="2.47818">
        <ele>701</ele>
        <time>2012-09-18T12:27:50Z</time>
      </trkpt>
      <trkpt lat="44.54644" lon="2.47829">
        <ele>695</ele>
        <time>2012-09-18T12:28:29Z</time>
      </trkpt>
      <trkpt lat="44.54643" lon="2.47843">
        <ele>695</ele>
        <time>2012-09-18T12:28:39Z</time>
      </trkpt>
      <trkpt lat="44.54646" lon="2.47856">
        <ele>695</ele>
        <time>2012-09-18T12:28:51Z</time>
      </trkpt>
      <trkpt lat="44.54648" lon="2.4787">
        <ele>695</ele>
        <time>2012-09-18T12:28:59Z</time>
      </trkpt>
      <trkpt lat="44.54644" lon="2.47884">
        <ele>695</ele>
        <time>2012-09-18T12:29:09Z</time>
      </trkpt>
      <trkpt lat="44.54645" lon="2.47897">
        <ele>695</ele>
        <time>2012-09-18T12:29:18Z</time>
      </trkpt>
      <trkpt lat="44.54645" lon="2.47911">
        <ele>695</ele>
        <time>2012-09-18T12:29:30Z</time>
      </trkpt>
      <trkpt lat="44.54644" lon="2.47924">
        <ele>695</ele>
        <time>2012-09-18T12:29:38Z</time>
      </trkpt>
      <trkpt lat="44.54647" lon="2.47937">
        <ele>695</ele>
        <time>2012-09-18T12:29:47Z</time>
      </trkpt>
      <trkpt lat="44.54652" lon="2.47949">
        <ele>700</ele>
        <time>2012-09-18T12:29:56Z</time>
      </trkpt>
      <trkpt lat="44.54652" lon="2.47964">
        <ele>700</ele>
        <time>2012-09-18T12:30:05Z</time>
      </trkpt>
      <trkpt lat="44.54653" lon="2.47977">
        <ele>700</ele>
        <time>2012-09-18T12:30:14Z</time>
      </trkpt>
      <trkpt lat="44.54652" lon="2.47991">
        <ele>700</ele>
        <time>2012-09-18T12:30:25Z</time>
      </trkpt>
      <trkpt lat="44.54652" lon="2.48004">
        <ele>700</ele>
        <time>2012-09-18T12:30:32Z</time>
      </trkpt>
      <trkpt lat="44.5465" lon="2.48018">
        <ele>700</ele>
        <time>2012-09-18T12:30:41Z</time>
      </trkpt>
      <trkpt lat="44.54652" lon="2.48031">
        <ele>700</ele>
        <time>2012-09-18T12:30:52Z</time>
      </trkpt>
      <trkpt lat="44.54651" lon="2.48045">
        <ele>700</ele>
        <time>2012-09-18T12:31:01Z</time>
      </trkpt>
      <trkpt lat="44.5465" lon="2.48059">
        <ele>700</ele>
        <time>2012-09-18T12:31:11Z</time>
      </trkpt>
      <trkpt lat="44.54652" lon="2.48073">
        <ele>706</ele>
        <time>2012-09-18T12:31:19Z</time>
      </trkpt>
      <trkpt lat="44.54653" lon="2.48087">
        <ele>706</ele>
        <time>2012-09-18T12:31:28Z</time>
      </trkpt>
      <trkpt lat="44.54653" lon="2.48101">
        <ele>706</ele>
        <time>2012-09-18T12:31:37Z</time>
      </trkpt>
      <trkpt lat="44.54652" lon="2.48115">
        <ele>706</ele>
        <time>2012-09-18T12:31:44Z</time>
      </trkpt>
      <trkpt lat="44.54652" lon="2.48128">
        <ele>706</ele>
        <time>2012-09-18T12:31:54Z</time>
      </trkpt>
      <trkpt lat="44.54653" lon="2.48143">
        <ele>706</ele>
        <time>2012-09-18T12:32:04Z</time>
      </trkpt>
      <trkpt lat="44.54654" lon="2.48156">
        <ele>706</ele>
        <time>2012-09-18T12:32:12Z</time>
      </trkpt>
      <trkpt lat="44.54655" lon="2.4817">
        <ele>706</ele>
        <time>2012-09-18T12:32:21Z</time>
      </trkpt>
      <trkpt lat="44.54655" lon="2.48184">
        <ele>700</ele>
        <time>2012-09-18T12:32:32Z</time>
      </trkpt>
      <trkpt lat="44.54655" lon="2.48197">
        <ele>694</ele>
        <time>2012-09-18T12:32:44Z</time>
      </trkpt>
      <trkpt lat="44.54655" lon="2.48211">
        <ele>694</ele>
        <time>2012-09-18T12:32:55Z</time>
      </trkpt>
      <trkpt lat="44.54657" lon="2.48224">
        <ele>694</ele>
        <time>2012-09-18T12:33:09Z</time>
      </trkpt>
      <trkpt lat="44.54661" lon="2.48236">
        <ele>694</ele>
        <time>2012-09-18T12:33:20Z</time>
      </trkpt>
      <trkpt lat="44.54664" lon="2.48249">
        <ele>694</ele>
        <time>2012-09-18T12:33:31Z</time>
      </trkpt>
      <trkpt lat="44.54667" lon="2.48262">
        <ele>694</ele>
        <time>2012-09-18T12:33:40Z</time>
      </trkpt>
      <trkpt lat="44.5467" lon="2.48276">
        <ele>694</ele>
        <time>2012-09-18T12:33:49Z</time>
      </trkpt>
      <trkpt lat="44.54671" lon="2.4829">
        <ele>688</ele>
        <time>2012-09-18T12:33:59Z</time>
      </trkpt>
      <trkpt lat="44.54673" lon="2.48302">
        <ele>688</ele>
        <time>2012-09-18T12:34:08Z</time>
      </trkpt>
      <trkpt lat="44.54677" lon="2.48315">
        <ele>688</ele>
        <time>2012-09-18T12:34:16Z</time>
      </trkpt>
      <trkpt lat="44.5468" lon="2.48329">
        <ele>688</ele>
        <time>2012-09-18T12:34:24Z</time>
      </trkpt>
      <trkpt lat="44.54683" lon="2.48341">
        <ele>688</ele>
        <time>2012-09-18T12:34:32Z</time>
      </trkpt>
      <trkpt lat="44.54685" lon="2.48355">
        <ele>688</ele>
        <time>2012-09-18T12:34:41Z</time>
      </trkpt>
      <trkpt lat="44.54688" lon="2.48369">
        <ele>688</ele>
        <time>2012-09-18T12:34:50Z</time>
      </trkpt>
      <trkpt lat="44.54686" lon="2.48382">
        <ele>682</ele>
        <time>2012-09-18T12:35:02Z</time>
      </trkpt>
      <trkpt lat="44.5468" lon="2.48373">
        <ele>682</ele>
        <time>2012-09-18T12:35:13Z</time>
      </trkpt>
      <trkpt lat="44.54675" lon="2.48361">
        <ele>682</ele>
        <time>2012-09-18T12:35:22Z</time>
      </trkpt>
      <trkpt lat="44.5467" lon="2.4835">
        <ele>682</ele>
        <time>2012-09-18T12:35:32Z</time>
      </trkpt>
      <trkpt lat="44.54662" lon="2.4834">
        <ele>682</ele>
        <time>2012-09-18T12:35:42Z</time>
      </trkpt>
      <trkpt lat="44.54657" lon="2.48329">
        <ele>682</ele>
        <time>2012-09-18T12:35:50Z</time>
      </trkpt>
      <trkpt lat="44.5465" lon="2.48319">
        <ele>682</ele>
        <time>2012-09-18T12:35:57Z</time>
      </trkpt>
      <trkpt lat="44.54644" lon="2.48309">
        <ele>676</ele>
        <time>2012-09-18T12:36:07Z</time>
      </trkpt>
      <trkpt lat="44.54637" lon="2.48299">
        <ele>676</ele>
        <time>2012-09-18T12:36:15Z</time>
      </trkpt>
      <trkpt lat="44.5463" lon="2.48288">
        <ele>676</ele>
        <time>2012-09-18T12:36:24Z</time>
      </trkpt>
      <trkpt lat="44.54623" lon="2.48278">
        <ele>676</ele>
        <time>2012-09-18T12:36:34Z</time>
      </trkpt>
      <trkpt lat="44.54617" lon="2.48268">
        <ele>676</ele>
        <time>2012-09-18T12:36:41Z</time>
      </trkpt>
      <trkpt lat="44.5461" lon="2.48256">
        <ele>676</ele>
        <time>2012-09-18T12:36:49Z</time>
      </trkpt>
      <trkpt lat="44.54602" lon="2.48247">
        <ele>676</ele>
        <time>2012-09-18T12:37:07Z</time>
      </trkpt>
      <trkpt lat="44.54596" lon="2.48235">
        <ele>676</ele>
        <time>2012-09-18T12:37:15Z</time>
      </trkpt>
      <trkpt lat="44.5459" lon="2.48225">
        <ele>676</ele>
        <time>2012-09-18T12:37:24Z</time>
      </trkpt>
      <trkpt lat="44.54583" lon="2.48215">
        <ele>676</ele>
        <time>2012-09-18T12:37:33Z</time>
      </trkpt>
      <trkpt lat="44.54577" lon="2.48204">
        <ele>669</ele>
        <time>2012-09-18T12:37:42Z</time>
      </trkpt>
      <trkpt lat="44.54571" lon="2.48191">
        <ele>669</ele>
        <time>2012-09-18T12:37:51Z</time>
      </trkpt>
      <trkpt lat="44.5457" lon="2.48178">
        <ele>669</ele>
        <time>2012-09-18T12:38:02Z</time>
      </trkpt>
      <trkpt lat="44.54566" lon="2.48164">
        <ele>663</ele>
        <time>2012-09-18T12:38:11Z</time>
      </trkpt>
      <trkpt lat="44.54564" lon="2.48151">
        <ele>663</ele>
        <time>2012-09-18T12:38:20Z</time>
      </trkpt>
      <trkpt lat="44.54562" lon="2.48138">
        <ele>663</ele>
        <time>2012-09-18T12:38:29Z</time>
      </trkpt>
      <trkpt lat="44.5456" lon="2.48125">
        <ele>656</ele>
        <time>2012-09-18T12:38:38Z</time>
      </trkpt>
      <trkpt lat="44.54558" lon="2.48111">
        <ele>656</ele>
        <time>2012-09-18T12:38:46Z</time>
      </trkpt>
      <trkpt lat="44.54555" lon="2.48099">
        <ele>656</ele>
        <time>2012-09-18T12:38:56Z</time>
      </trkpt>
      <trkpt lat="44.54552" lon="2.48086">
        <ele>650</ele>
        <time>2012-09-18T12:39:04Z</time>
      </trkpt>
      <trkpt lat="44.54547" lon="2.48073">
        <ele>650</ele>
        <time>2012-09-18T12:39:15Z</time>
      </trkpt>
      <trkpt lat="44.54545" lon="2.48059">
        <ele>650</ele>
        <time>2012-09-18T12:39:23Z</time>
      </trkpt>
      <trkpt lat="44.54543" lon="2.48046">
        <ele>650</ele>
        <time>2012-09-18T12:39:33Z</time>
      </trkpt>
      <trkpt lat="44.5454" lon="2.48033">
        <ele>650</ele>
        <time>2012-09-18T12:39:41Z</time>
      </trkpt>
      <trkpt lat="44.54537" lon="2.4802">
        <ele>650</ele>
        <time>2012-09-18T12:39:50Z</time>
      </trkpt>
      <trkpt lat="44.54533" lon="2.48008">
        <ele>650</ele>
        <time>2012-09-18T12:39:59Z</time>
      </trkpt>
      <trkpt lat="44.5453" lon="2.47995">
        <ele>650</ele>
        <time>2012-09-18T12:40:11Z</time>
      </trkpt>
      <trkpt lat="44.54528" lon="2.47982">
        <ele>645</ele>
        <time>2012-09-18T12:40:21Z</time>
      </trkpt>
      <trkpt lat="44.54526" lon="2.47968">
        <ele>645</ele>
        <time>2012-09-18T12:40:28Z</time>
      </trkpt>
      <trkpt lat="44.54523" lon="2.47956">
        <ele>645</ele>
        <time>2012-09-18T12:40:40Z</time>
      </trkpt>
      <trkpt lat="44.5452" lon="2.47942">
        <ele>640</ele>
        <time>2012-09-18T12:40:48Z</time>
      </trkpt>
      <trkpt lat="44.54519" lon="2.47928">
        <ele>640</ele>
        <time>2012-09-18T12:40:56Z</time>
      </trkpt>
      <trkpt lat="44.54517" lon="2.47914">
        <ele>640</ele>
        <time>2012-09-18T12:41:06Z</time>
      </trkpt>
      <trkpt lat="44.54515" lon="2.479">
        <ele>631</ele>
        <time>2012-09-18T12:41:19Z</time>
      </trkpt>
      <trkpt lat="44.54513" lon="2.47886">
        <ele>631</ele>
        <time>2012-09-18T12:41:29Z</time>
      </trkpt>
      <trkpt lat="44.54512" lon="2.47872">
        <ele>631</ele>
        <time>2012-09-18T12:41:37Z</time>
      </trkpt>
      <trkpt lat="44.54509" lon="2.47857">
        <ele>631</ele>
        <time>2012-09-18T12:41:45Z</time>
      </trkpt>
      <trkpt lat="44.54508" lon="2.47843">
        <ele>631</ele>
        <time>2012-09-18T12:41:52Z</time>
      </trkpt>
      <trkpt lat="44.54507" lon="2.47829">
        <ele>631</ele>
        <time>2012-09-18T12:41:59Z</time>
      </trkpt>
      <trkpt lat="44.54506" lon="2.47816">
        <ele>623</ele>
        <time>2012-09-18T12:42:07Z</time>
      </trkpt>
      <trkpt lat="44.54504" lon="2.47802">
        <ele>623</ele>
        <time>2012-09-18T12:42:18Z</time>
      </trkpt>
      <trkpt lat="44.54505" lon="2.47789">
        <ele>617</ele>
        <time>2012-09-18T12:42:28Z</time>
      </trkpt>
      <trkpt lat="44.54504" lon="2.47775">
        <ele>617</ele>
        <time>2012-09-18T12:42:37Z</time>
      </trkpt>
      <trkpt lat="44.54503" lon="2.47761">
        <ele>617</ele>
        <time>2012-09-18T12:42:47Z</time>
      </trkpt>
      <trkpt lat="44.54506" lon="2.47748">
        <ele>609</ele>
        <time>2012-09-18T12:42:59Z</time>
      </trkpt>
      <trkpt lat="44.54504" lon="2.47734">
        <ele>609</ele>
        <time>2012-09-18T12:43:10Z</time>
      </trkpt>
      <trkpt lat="44.54497" lon="2.47725">
        <ele>609</ele>
        <time>2012-09-18T12:43:18Z</time>
      </trkpt>
      <trkpt lat="44.54491" lon="2.47715">
        <ele>623</ele>
        <time>2012-09-18T12:43:32Z</time>
      </trkpt>
      <trkpt lat="44.54499" lon="2.47723">
        <ele>623</ele>
        <time>2012-09-18T12:44:26Z</time>
      </trkpt>
      <trkpt lat="44.5449" lon="2.47719">
        <ele>623</ele>
        <time>2012-09-18T12:46:01Z</time>
      </trkpt>
      <trkpt lat="44.54485" lon="2.47731">
        <ele>623</ele>
        <time>2012-09-18T12:46:11Z</time>
      </trkpt>
      <trkpt lat="44.54485" lon="2.47745">
        <ele>617</ele>
        <time>2012-09-18T12:46:24Z</time>
      </trkpt>
      <trkpt lat="44.54483" lon="2.47759">
        <ele>611</ele>
        <time>2012-09-18T12:46:35Z</time>
      </trkpt>
      <trkpt lat="44.54476" lon="2.47771">
        <ele>611</ele>
        <time>2012-09-18T12:46:44Z</time>
      </trkpt>
      <trkpt lat="44.54471" lon="2.47759">
        <ele>611</ele>
        <time>2012-09-18T12:47:02Z</time>
      </trkpt>
      <trkpt lat="44.54473" lon="2.47746">
        <ele>603</ele>
        <time>2012-09-18T12:47:15Z</time>
      </trkpt>
      <trkpt lat="44.54473" lon="2.47731">
        <ele>603</ele>
        <time>2012-09-18T12:47:24Z</time>
      </trkpt>
      <trkpt lat="44.54472" lon="2.47718">
        <ele>596</ele>
        <time>2012-09-18T12:47:34Z</time>
      </trkpt>
      <trkpt lat="44.54473" lon="2.47703">
        <ele>596</ele>
        <time>2012-09-18T12:47:44Z</time>
      </trkpt>
      <trkpt lat="44.54474" lon="2.4769">
        <ele>596</ele>
        <time>2012-09-18T12:47:53Z</time>
      </trkpt>
      <trkpt lat="44.54474" lon="2.47675">
        <ele>596</ele>
        <time>2012-09-18T12:48:03Z</time>
      </trkpt>
      <trkpt lat="44.54474" lon="2.47662">
        <ele>596</ele>
        <time>2012-09-18T12:48:12Z</time>
      </trkpt>
      <trkpt lat="44.54477" lon="2.47649">
        <ele>596</ele>
        <time>2012-09-18T12:48:27Z</time>
      </trkpt>
      <trkpt lat="44.54473" lon="2.47636">
        <ele>586</ele>
        <time>2012-09-18T12:48:39Z</time>
      </trkpt>
      <trkpt lat="44.54466" lon="2.47627">
        <ele>586</ele>
        <time>2012-09-18T12:48:45Z</time>
      </trkpt>
      <trkpt lat="44.54459" lon="2.47636">
        <ele>592</ele>
        <time>2012-09-18T12:48:58Z</time>
      </trkpt>
      <trkpt lat="44.54456" lon="2.4765">
        <ele>592</ele>
        <time>2012-09-18T12:49:08Z</time>
      </trkpt>
      <trkpt lat="44.54452" lon="2.47664">
        <ele>592</ele>
        <time>2012-09-18T12:49:17Z</time>
      </trkpt>
      <trkpt lat="44.54447" lon="2.47675">
        <ele>592</ele>
        <time>2012-09-18T12:50:03Z</time>
      </trkpt>
      <trkpt lat="44.54445" lon="2.47688">
        <ele>592</ele>
        <time>2012-09-18T12:50:21Z</time>
      </trkpt>
      <trkpt lat="44.54434" lon="2.47692">
        <ele>592</ele>
        <time>2012-09-18T12:52:16Z</time>
      </trkpt>
      <trkpt lat="44.54425" lon="2.47696">
        <ele>592</ele>
        <time>2012-09-18T12:52:59Z</time>
      </trkpt>
      <trkpt lat="44.54419" lon="2.47709">
        <ele>592</ele>
        <time>2012-09-18T12:53:11Z</time>
      </trkpt>
      <trkpt lat="44.54416" lon="2.47721">
        <ele>582</ele>
        <time>2012-09-18T12:53:21Z</time>
      </trkpt>
      <trkpt lat="44.54414" lon="2.47735">
        <ele>582</ele>
        <time>2012-09-18T12:53:36Z</time>
      </trkpt>
      <trkpt lat="44.54407" lon="2.47745">
        <ele>582</ele>
        <time>2012-09-18T12:53:50Z</time>
      </trkpt>
      <trkpt lat="44.544" lon="2.47755">
        <ele>588</ele>
        <time>2012-09-18T12:53:59Z</time>
      </trkpt>
      <trkpt lat="44.54393" lon="2.47768">
        <ele>588</ele>
        <time>2012-09-18T12:54:08Z</time>
      </trkpt>
      <trkpt lat="44.54389" lon="2.4778">
        <ele>588</ele>
        <time>2012-09-18T12:54:15Z</time>
      </trkpt>
      <trkpt lat="44.54386" lon="2.47792">
        <ele>588</ele>
        <time>2012-09-18T12:54:24Z</time>
      </trkpt>
      <trkpt lat="44.54382" lon="2.47804">
        <ele>581</ele>
        <time>2012-09-18T12:54:35Z</time>
      </trkpt>
      <trkpt lat="44.54379" lon="2.47816">
        <ele>581</ele>
        <time>2012-09-18T12:54:44Z</time>
      </trkpt>
      <trkpt lat="44.54379" lon="2.4783">
        <ele>581</ele>
        <time>2012-09-18T12:54:54Z</time>
      </trkpt>
      <trkpt lat="44.54378" lon="2.47844">
        <ele>573</ele>
        <time>2012-09-18T12:55:03Z</time>
      </trkpt>
      <trkpt lat="44.54376" lon="2.47858">
        <ele>573</ele>
        <time>2012-09-18T12:55:13Z</time>
      </trkpt>
      <trkpt lat="44.54371" lon="2.4787">
        <ele>573</ele>
        <time>2012-09-18T12:55:22Z</time>
      </trkpt>
      <trkpt lat="44.54368" lon="2.47883">
        <ele>573</ele>
        <time>2012-09-18T12:55:29Z</time>
      </trkpt>
      <trkpt lat="44.54366" lon="2.47896">
        <ele>573</ele>
        <time>2012-09-18T12:55:39Z</time>
      </trkpt>
      <trkpt lat="44.54368" lon="2.47911">
        <ele>573</ele>
        <time>2012-09-18T12:55:49Z</time>
      </trkpt>
      <trkpt lat="44.5437" lon="2.47924">
        <ele>573</ele>
        <time>2012-09-18T12:55:57Z</time>
      </trkpt>
      <trkpt lat="44.54375" lon="2.47936">
        <ele>573</ele>
        <time>2012-09-18T12:56:06Z</time>
      </trkpt>
      <trkpt lat="44.54379" lon="2.47948">
        <ele>573</ele>
        <time>2012-09-18T12:56:11Z</time>
      </trkpt>
      <trkpt lat="44.5438" lon="2.47962">
        <ele>568</ele>
        <time>2012-09-18T12:56:21Z</time>
      </trkpt>
      <trkpt lat="44.54373" lon="2.47971">
        <ele>568</ele>
        <time>2012-09-18T12:56:27Z</time>
      </trkpt>
      <trkpt lat="44.54363" lon="2.47965">
        <ele>568</ele>
        <time>2012-09-18T12:56:40Z</time>
      </trkpt>
      <trkpt lat="44.54357" lon="2.47952">
        <ele>568</ele>
        <time>2012-09-18T12:56:49Z</time>
      </trkpt>
      <trkpt lat="44.54353" lon="2.4794">
        <ele>568</ele>
        <time>2012-09-18T12:56:55Z</time>
      </trkpt>
      <trkpt lat="44.54348" lon="2.47928">
        <ele>568</ele>
        <time>2012-09-18T12:57:05Z</time>
      </trkpt>
      <trkpt lat="44.54343" lon="2.47916">
        <ele>568</ele>
        <time>2012-09-18T12:57:12Z</time>
      </trkpt>
      <trkpt lat="44.54337" lon="2.47905">
        <ele>568</ele>
        <time>2012-09-18T12:57:23Z</time>
      </trkpt>
      <trkpt lat="44.54333" lon="2.47893">
        <ele>568</ele>
        <time>2012-09-18T12:57:31Z</time>
      </trkpt>
      <trkpt lat="44.54331" lon="2.47878">
        <ele>561</ele>
        <time>2012-09-18T12:57:44Z</time>
      </trkpt>
      <trkpt lat="44.54327" lon="2.47866">
        <ele>561</ele>
        <time>2012-09-18T12:57:51Z</time>
      </trkpt>
      <trkpt lat="44.54324" lon="2.47853">
        <ele>561</ele>
        <time>2012-09-18T12:57:58Z</time>
      </trkpt>
      <trkpt lat="44.54322" lon="2.4784">
        <ele>561</ele>
        <time>2012-09-18T12:58:08Z</time>
      </trkpt>
      <trkpt lat="44.54319" lon="2.47827">
        <ele>555</ele>
        <time>2012-09-18T12:58:18Z</time>
      </trkpt>
      <trkpt lat="44.54317" lon="2.47814">
        <ele>555</ele>
        <time>2012-09-18T12:58:26Z</time>
      </trkpt>
      <trkpt lat="44.54315" lon="2.47801">
        <ele>555</ele>
        <time>2012-09-18T12:58:32Z</time>
      </trkpt>
      <trkpt lat="44.54313" lon="2.47787">
        <ele>555</ele>
        <time>2012-09-18T12:58:42Z</time>
      </trkpt>
      <trkpt lat="44.54309" lon="2.47774">
        <ele>555</ele>
        <time>2012-09-18T12:58:50Z</time>
      </trkpt>
      <trkpt lat="44.5431" lon="2.47761">
        <ele>547</ele>
        <time>2012-09-18T12:58:59Z</time>
      </trkpt>
      <trkpt lat="44.54307" lon="2.47747">
        <ele>547</ele>
        <time>2012-09-18T12:59:08Z</time>
      </trkpt>
      <trkpt lat="44.54303" lon="2.47734">
        <ele>547</ele>
        <time>2012-09-18T12:59:16Z</time>
      </trkpt>
      <trkpt lat="44.54299" lon="2.47721">
        <ele>547</ele>
        <time>2012-09-18T12:59:24Z</time>
      </trkpt>
      <trkpt lat="44.54294" lon="2.47709">
        <ele>547</ele>
        <time>2012-09-18T12:59:32Z</time>
      </trkpt>
      <trkpt lat="44.5429" lon="2.47697">
        <ele>547</ele>
        <time>2012-09-18T12:59:40Z</time>
      </trkpt>
      <trkpt lat="44.54283" lon="2.47686">
        <ele>547</ele>
        <time>2012-09-18T12:59:57Z</time>
      </trkpt>
      <trkpt lat="44.54278" lon="2.47675">
        <ele>547</ele>
        <time>2012-09-18T13:00:04Z</time>
      </trkpt>
      <trkpt lat="44.54274" lon="2.47662">
        <ele>547</ele>
        <time>2012-09-18T13:00:12Z</time>
      </trkpt>
      <trkpt lat="44.54269" lon="2.4765">
        <ele>541</ele>
        <time>2012-09-18T13:00:19Z</time>
      </trkpt>
      <trkpt lat="44.54264" lon="2.47639">
        <ele>541</ele>
        <time>2012-09-18T13:00:26Z</time>
      </trkpt>
      <trkpt lat="44.54259" lon="2.47626">
        <ele>541</ele>
        <time>2012-09-18T13:00:33Z</time>
      </trkpt>
      <trkpt lat="44.54255" lon="2.47613">
        <ele>541</ele>
        <time>2012-09-18T13:00:44Z</time>
      </trkpt>
      <trkpt lat="44.54251" lon="2.476">
        <ele>541</ele>
        <time>2012-09-18T13:00:52Z</time>
      </trkpt>
      <trkpt lat="44.54248" lon="2.47587">
        <ele>541</ele>
        <time>2012-09-18T13:01:00Z</time>
      </trkpt>
      <trkpt lat="44.54246" lon="2.47573">
        <ele>536</ele>
        <time>2012-09-18T13:01:11Z</time>
      </trkpt>
      <trkpt lat="44.54244" lon="2.47559">
        <ele>536</ele>
        <time>2012-09-18T13:01:19Z</time>
      </trkpt>
      <trkpt lat="44.54246" lon="2.47545">
        <ele>536</ele>
        <time>2012-09-18T13:01:30Z</time>
      </trkpt>
      <trkpt lat="44.54246" lon="2.47531">
        <ele>536</ele>
        <time>2012-09-18T13:01:39Z</time>
      </trkpt>
      <trkpt lat="44.54247" lon="2.47517">
        <ele>536</ele>
        <time>2012-09-18T13:01:47Z</time>
      </trkpt>
      <trkpt lat="44.54251" lon="2.47505">
        <ele>530</ele>
        <time>2012-09-18T13:01:55Z</time>
      </trkpt>
      <trkpt lat="44.54256" lon="2.47493">
        <ele>530</ele>
        <time>2012-09-18T13:02:04Z</time>
      </trkpt>
      <trkpt lat="44.54259" lon="2.47481">
        <ele>530</ele>
        <time>2012-09-18T13:02:12Z</time>
      </trkpt>
      <trkpt lat="44.54264" lon="2.47469">
        <ele>530</ele>
        <time>2012-09-18T13:02:21Z</time>
      </trkpt>
      <trkpt lat="44.54269" lon="2.47457">
        <ele>530</ele>
        <time>2012-09-18T13:02:29Z</time>
      </trkpt>
      <trkpt lat="44.54273" lon="2.47445">
        <ele>524</ele>
        <time>2012-09-18T13:02:38Z</time>
      </trkpt>
      <trkpt lat="44.5428" lon="2.47435">
        <ele>524</ele>
        <time>2012-09-18T13:02:47Z</time>
      </trkpt>
      <trkpt lat="44.5429" lon="2.47432">
        <ele>524</ele>
        <time>2012-09-18T13:02:56Z</time>
      </trkpt>
      <trkpt lat="44.54299" lon="2.47428">
        <ele>524</ele>
        <time>2012-09-18T13:03:04Z</time>
      </trkpt>
      <trkpt lat="44.54307" lon="2.47419">
        <ele>529</ele>
        <time>2012-09-18T13:03:12Z</time>
      </trkpt>
      <trkpt lat="44.54312" lon="2.47407">
        <ele>529</ele>
        <time>2012-09-18T13:03:20Z</time>
      </trkpt>
      <trkpt lat="44.54319" lon="2.47397">
        <ele>523</ele>
        <time>2012-09-18T13:03:30Z</time>
      </trkpt>
      <trkpt lat="44.54322" lon="2.47384">
        <ele>515</ele>
        <time>2012-09-18T13:03:41Z</time>
      </trkpt>
      <trkpt lat="44.54322" lon="2.47368">
        <ele>515</ele>
        <time>2012-09-18T13:03:49Z</time>
      </trkpt>
      <trkpt lat="44.54321" lon="2.47355">
        <ele>521</ele>
        <time>2012-09-18T13:03:57Z</time>
      </trkpt>
      <trkpt lat="44.54321" lon="2.4734">
        <ele>521</ele>
        <time>2012-09-18T13:04:10Z</time>
      </trkpt>
      <trkpt lat="44.54326" lon="2.47329">
        <ele>521</ele>
        <time>2012-09-18T13:05:31Z</time>
      </trkpt>
      <trkpt lat="44.5433" lon="2.47315">
        <ele>511</ele>
        <time>2012-09-18T13:05:47Z</time>
      </trkpt>
      <trkpt lat="44.54329" lon="2.47302">
        <ele>511</ele>
        <time>2012-09-18T13:05:55Z</time>
      </trkpt>
      <trkpt lat="44.54326" lon="2.47289">
        <ele>517</ele>
        <time>2012-09-18T13:06:01Z</time>
      </trkpt>
      <trkpt lat="44.54317" lon="2.47295">
        <ele>517</ele>
        <time>2012-09-18T13:06:19Z</time>
      </trkpt>
      <trkpt lat="44.54307" lon="2.47301">
        <ele>507</ele>
        <time>2012-09-18T13:06:31Z</time>
      </trkpt>
      <trkpt lat="44.54298" lon="2.47304">
        <ele>507</ele>
        <time>2012-09-18T13:06:39Z</time>
      </trkpt>
      <trkpt lat="44.54289" lon="2.47309">
        <ele>516</ele>
        <time>2012-09-18T13:06:47Z</time>
      </trkpt>
      <trkpt lat="44.5428" lon="2.47316">
        <ele>510</ele>
        <time>2012-09-18T13:07:00Z</time>
      </trkpt>
      <trkpt lat="44.54273" lon="2.47326">
        <ele>502</ele>
        <time>2012-09-18T13:07:09Z</time>
      </trkpt>
      <trkpt lat="44.54264" lon="2.4733">
        <ele>502</ele>
        <time>2012-09-18T13:07:18Z</time>
      </trkpt>
      <trkpt lat="44.54256" lon="2.47338">
        <ele>502</ele>
        <time>2012-09-18T13:07:28Z</time>
      </trkpt>
      <trkpt lat="44.54247" lon="2.47341">
        <ele>502</ele>
        <time>2012-09-18T13:07:36Z</time>
      </trkpt>
      <trkpt lat="44.54238" lon="2.47345">
        <ele>497</ele>
        <time>2012-09-18T13:07:45Z</time>
      </trkpt>
      <trkpt lat="44.54228" lon="2.47348">
        <ele>497</ele>
        <time>2012-09-18T13:07:52Z</time>
      </trkpt>
      <trkpt lat="44.54218" lon="2.47349">
        <ele>497</ele>
        <time>2012-09-18T13:08:03Z</time>
      </trkpt>
      <trkpt lat="44.54222" lon="2.47337">
        <ele>497</ele>
        <time>2012-09-18T13:09:36Z</time>
      </trkpt>
      <trkpt lat="44.54231" lon="2.4733">
        <ele>497</ele>
        <time>2012-09-18T13:09:48Z</time>
      </trkpt>
      <trkpt lat="44.54238" lon="2.4732">
        <ele>488</ele>
        <time>2012-09-18T13:10:00Z</time>
      </trkpt>
      <trkpt lat="44.54243" lon="2.47308">
        <ele>488</ele>
        <time>2012-09-18T13:10:11Z</time>
      </trkpt>
      <trkpt lat="44.54247" lon="2.47295">
        <ele>488</ele>
        <time>2012-09-18T13:10:23Z</time>
      </trkpt>
      <trkpt lat="44.5425" lon="2.47282">
        <ele>488</ele>
        <time>2012-09-18T13:10:33Z</time>
      </trkpt>
      <trkpt lat="44.54256" lon="2.47271">
        <ele>488</ele>
        <time>2012-09-18T13:10:44Z</time>
      </trkpt>
      <trkpt lat="44.54264" lon="2.47263">
        <ele>488</ele>
        <time>2012-09-18T13:10:53Z</time>
      </trkpt>
      <trkpt lat="44.5427" lon="2.47251">
        <ele>488</ele>
        <time>2012-09-18T13:11:00Z</time>
      </trkpt>
      <trkpt lat="44.54271" lon="2.47237">
        <ele>495</ele>
        <time>2012-09-18T13:11:10Z</time>
      </trkpt>
      <trkpt lat="44.54282" lon="2.47234">
        <ele>495</ele>
        <time>2012-09-18T13:11:16Z</time>
      </trkpt>
      <trkpt lat="44.54291" lon="2.47228">
        <ele>495</ele>
        <time>2012-09-18T13:11:24Z</time>
      </trkpt>
      <trkpt lat="44.54298" lon="2.47219">
        <ele>501</ele>
        <time>2012-09-18T13:11:33Z</time>
      </trkpt>
      <trkpt lat="44.54305" lon="2.47209">
        <ele>501</ele>
        <time>2012-09-18T13:11:50Z</time>
      </trkpt>
      <trkpt lat="44.54308" lon="2.47197">
        <ele>501</ele>
        <time>2012-09-18T13:11:58Z</time>
      </trkpt>
      <trkpt lat="44.54315" lon="2.47187">
        <ele>501</ele>
        <time>2012-09-18T13:12:10Z</time>
      </trkpt>
      <trkpt lat="44.54323" lon="2.47179">
        <ele>490</ele>
        <time>2012-09-18T13:12:22Z</time>
      </trkpt>
      <trkpt lat="44.54319" lon="2.47165">
        <ele>490</ele>
        <time>2012-09-18T13:12:28Z</time>
      </trkpt>
      <trkpt lat="44.54326" lon="2.47155">
        <ele>490</ele>
        <time>2012-09-18T13:12:38Z</time>
      </trkpt>
      <trkpt lat="44.54331" lon="2.47143">
        <ele>490</ele>
        <time>2012-09-18T13:12:48Z</time>
      </trkpt>
      <trkpt lat="44.5434" lon="2.47139">
        <ele>482</ele>
        <time>2012-09-18T13:12:56Z</time>
      </trkpt>
      <trkpt lat="44.54348" lon="2.47131">
        <ele>488</ele>
        <time>2012-09-18T13:13:08Z</time>
      </trkpt>
      <trkpt lat="44.54358" lon="2.47128">
        <ele>497</ele>
        <time>2012-09-18T13:13:36Z</time>
      </trkpt>
      <trkpt lat="44.54368" lon="2.47125">
        <ele>484</ele>
        <time>2012-09-18T13:13:50Z</time>
      </trkpt>
      <trkpt lat="44.5438" lon="2.47123">
        <ele>484</ele>
        <time>2012-09-18T13:14:00Z</time>
      </trkpt>
      <trkpt lat="44.54388" lon="2.47116">
        <ele>476</ele>
        <time>2012-09-18T13:14:08Z</time>
      </trkpt>
      <trkpt lat="44.54398" lon="2.47109">
        <ele>485</ele>
        <time>2012-09-18T13:14:13Z</time>
      </trkpt>
      <trkpt lat="44.54407" lon="2.47107">
        <ele>485</ele>
        <time>2012-09-18T13:14:19Z</time>
      </trkpt>
      <trkpt lat="44.54417" lon="2.47101">
        <ele>485</ele>
        <time>2012-09-18T13:14:35Z</time>
      </trkpt>
      <trkpt lat="44.54427" lon="2.47096">
        <ele>485</ele>
        <time>2012-09-18T13:14:46Z</time>
      </trkpt>
      <trkpt lat="44.54433" lon="2.47086">
        <ele>485</ele>
        <time>2012-09-18T13:15:01Z</time>
      </trkpt>
      <trkpt lat="44.5444" lon="2.47077">
        <ele>485</ele>
        <time>2012-09-18T13:15:13Z</time>
      </trkpt>
      <trkpt lat="44.5445" lon="2.47079">
        <ele>479</ele>
        <time>2012-09-18T13:15:17Z</time>
      </trkpt>
      <trkpt lat="44.54456" lon="2.47068">
        <ele>479</ele>
        <time>2012-09-18T13:15:31Z</time>
      </trkpt>
      <trkpt lat="44.54465" lon="2.47061">
        <ele>479</ele>
        <time>2012-09-18T13:15:55Z</time>
      </trkpt>
      <trkpt lat="44.54467" lon="2.47048">
        <ele>479</ele>
        <time>2012-09-18T13:16:20Z</time>
      </trkpt>
      <trkpt lat="44.54467" lon="2.47033">
        <ele>487</ele>
        <time>2012-09-18T13:16:32Z</time>
      </trkpt>
      <trkpt lat="44.54474" lon="2.47022">
        <ele>487</ele>
        <time>2012-09-18T13:16:44Z</time>
      </trkpt>
      <trkpt lat="44.54477" lon="2.4701">
        <ele>487</ele>
        <time>2012-09-18T13:16:54Z</time>
      </trkpt>
      <trkpt lat="44.54479" lon="2.46995">
        <ele>481</ele>
        <time>2012-09-18T13:17:05Z</time>
      </trkpt>
      <trkpt lat="44.54478" lon="2.46982">
        <ele>481</ele>
        <time>2012-09-18T13:17:13Z</time>
      </trkpt>
      <trkpt lat="44.54479" lon="2.46968">
        <ele>481</ele>
        <time>2012-09-18T13:17:23Z</time>
      </trkpt>
      <trkpt lat="44.54477" lon="2.46954">
        <ele>481</ele>
        <time>2012-09-18T13:17:30Z</time>
      </trkpt>
      <trkpt lat="44.54481" lon="2.46942">
        <ele>481</ele>
        <time>2012-09-18T13:17:42Z</time>
      </trkpt>
      <trkpt lat="44.54484" lon="2.46929">
        <ele>481</ele>
        <time>2012-09-18T13:17:51Z</time>
      </trkpt>
      <trkpt lat="44.54483" lon="2.46915">
        <ele>489</ele>
        <time>2012-09-18T13:18:00Z</time>
      </trkpt>
      <trkpt lat="44.54486" lon="2.46903">
        <ele>489</ele>
        <time>2012-09-18T13:18:09Z</time>
      </trkpt>
      <trkpt lat="44.54492" lon="2.46892">
        <ele>495</ele>
        <time>2012-09-18T13:18:19Z</time>
      </trkpt>
      <trkpt lat="44.54493" lon="2.46879">
        <ele>495</ele>
        <time>2012-09-18T13:18:27Z</time>
      </trkpt>
      <trkpt lat="44.5449" lon="2.46866">
        <ele>495</ele>
        <time>2012-09-18T13:18:39Z</time>
      </trkpt>
      <trkpt lat="44.54487" lon="2.46853">
        <ele>495</ele>
        <time>2012-09-18T13:18:51Z</time>
      </trkpt>
      <trkpt lat="44.54491" lon="2.46841">
        <ele>477</ele>
        <time>2012-09-18T13:19:11Z</time>
      </trkpt>
      <trkpt lat="44.54497" lon="2.4683">
        <ele>469</ele>
        <time>2012-09-18T13:19:26Z</time>
      </trkpt>
      <trkpt lat="44.54499" lon="2.46818">
        <ele>469</ele>
        <time>2012-09-18T13:19:36Z</time>
      </trkpt>
      <trkpt lat="44.54495" lon="2.46806">
        <ele>469</ele>
        <time>2012-09-18T13:19:43Z</time>
      </trkpt>
      <trkpt lat="44.54491" lon="2.46789">
        <ele>479</ele>
        <time>2012-09-18T13:19:53Z</time>
      </trkpt>
      <trkpt lat="44.54485" lon="2.46779">
        <ele>489</ele>
        <time>2012-09-18T13:20:01Z</time>
      </trkpt>
      <trkpt lat="44.54488" lon="2.46766">
        <ele>489</ele>
        <time>2012-09-18T13:20:27Z</time>
      </trkpt>
      <trkpt lat="44.54492" lon="2.46755">
        <ele>489</ele>
        <time>2012-09-18T13:20:39Z</time>
      </trkpt>
      <trkpt lat="44.54489" lon="2.46768">
        <ele>489</ele>
        <time>2012-09-18T13:21:21Z</time>
      </trkpt>
      <trkpt lat="44.54488" lon="2.46782">
        <ele>489</ele>
        <time>2012-09-18T13:21:37Z</time>
      </trkpt>
      <trkpt lat="44.54486" lon="2.46794">
        <ele>499</ele>
        <time>2012-09-18T13:21:49Z</time>
      </trkpt>
      <trkpt lat="44.54485" lon="2.46808">
        <ele>504</ele>
        <time>2012-09-18T13:21:58Z</time>
      </trkpt>
      <trkpt lat="44.5449" lon="2.46819">
        <ele>504</ele>
        <time>2012-09-18T13:22:11Z</time>
      </trkpt>
      <trkpt lat="44.54497" lon="2.46828">
        <ele>504</ele>
        <time>2012-09-18T13:22:20Z</time>
      </trkpt>
      <trkpt lat="44.54506" lon="2.46832">
        <ele>504</ele>
        <time>2012-09-18T13:22:32Z</time>
      </trkpt>
      <trkpt lat="44.54515" lon="2.4684">
        <ele>496</ele>
        <time>2012-09-18T13:22:42Z</time>
      </trkpt>
      <trkpt lat="44.54524" lon="2.46848">
        <ele>496</ele>
        <time>2012-09-18T13:22:57Z</time>
      </trkpt>
      <trkpt lat="44.54533" lon="2.46853">
        <ele>496</ele>
        <time>2012-09-18T13:23:11Z</time>
      </trkpt>
      <trkpt lat="44.54533" lon="2.4684">
        <ele>505</ele>
        <time>2012-09-18T13:23:24Z</time>
      </trkpt>
      <trkpt lat="44.54533" lon="2.46826">
        <ele>510</ele>
        <time>2012-09-18T13:23:42Z</time>
      </trkpt>
      <trkpt lat="44.54533" lon="2.46812">
        <ele>510</ele>
        <time>2012-09-18T13:23:55Z</time>
      </trkpt>
      <trkpt lat="44.54533" lon="2.46799">
        <ele>510</ele>
        <time>2012-09-18T13:24:08Z</time>
      </trkpt>
      <trkpt lat="44.54535" lon="2.46784">
        <ele>510</ele>
        <time>2012-09-18T13:24:20Z</time>
      </trkpt>
      <trkpt lat="44.54544" lon="2.46778">
        <ele>517</ele>
        <time>2012-09-18T13:24:34Z</time>
      </trkpt>
      <trkpt lat="44.54553" lon="2.46778">
        <ele>517</ele>
        <time>2012-09-18T13:24:58Z</time>
      </trkpt>
      <trkpt lat="44.54563" lon="2.46776">
        <ele>509</ele>
        <time>2012-09-18T13:25:08Z</time>
      </trkpt>
      <trkpt lat="44.54568" lon="2.46788">
        <ele>518</ele>
        <time>2012-09-18T13:25:40Z</time>
      </trkpt>
      <trkpt lat="44.54567" lon="2.46802">
        <ele>518</ele>
        <time>2012-09-18T13:25:51Z</time>
      </trkpt>
      <trkpt lat="44.54567" lon="2.46816">
        <ele>518</ele>
        <time>2012-09-18T13:25:59Z</time>
      </trkpt>
      <trkpt lat="44.54567" lon="2.46829">
        <ele>518</ele>
        <time>2012-09-18T13:26:11Z</time>
      </trkpt>
      <trkpt lat="44.54571" lon="2.46844">
        <ele>527</ele>
        <time>2012-09-18T13:26:28Z</time>
      </trkpt>
      <trkpt lat="44.54576" lon="2.46855">
        <ele>527</ele>
        <time>2012-09-18T13:26:46Z</time>
      </trkpt>
      <trkpt lat="44.54576" lon="2.4684">
        <ele>527</ele>
        <time>2012-09-18T13:26:54Z</time>
      </trkpt>
      <trkpt lat="44.54579" lon="2.46855">
        <ele>527</ele>
        <time>2012-09-18T13:27:26Z</time>
      </trkpt>
      <trkpt lat="44.54578" lon="2.46842">
        <ele>527</ele>
        <time>2012-09-18T13:29:21Z</time>
      </trkpt>
      <trkpt lat="44.54588" lon="2.46849">
        <ele>527</ele>
        <time>2012-09-18T13:29:27Z</time>
      </trkpt>
      <trkpt lat="44.54597" lon="2.46855">
        <ele>519</ele>
        <time>2012-09-18T13:29:31Z</time>
      </trkpt>
      <trkpt lat="44.54592" lon="2.46836">
        <ele>519</ele>
        <time>2012-09-18T13:29:43Z</time>
      </trkpt>
      <trkpt lat="44.54589" lon="2.46823">
        <ele>529</ele>
        <time>2012-09-18T13:29:48Z</time>
      </trkpt>
      <trkpt lat="44.54593" lon="2.46811">
        <ele>529</ele>
        <time>2012-09-18T13:29:59Z</time>
      </trkpt>
      <trkpt lat="44.54602" lon="2.46805">
        <ele>540</ele>
        <time>2012-09-18T13:30:08Z</time>
      </trkpt>
      <trkpt lat="44.54611" lon="2.468">
        <ele>545</ele>
        <time>2012-09-18T13:30:29Z</time>
      </trkpt>
      <trkpt lat="44.54621" lon="2.46804">
        <ele>545</ele>
        <time>2012-09-18T13:30:38Z</time>
      </trkpt>
      <trkpt lat="44.54632" lon="2.468">
        <ele>545</ele>
        <time>2012-09-18T13:30:53Z</time>
      </trkpt>
      <trkpt lat="44.54643" lon="2.46802">
        <ele>545</ele>
        <time>2012-09-18T13:31:01Z</time>
      </trkpt>
      <trkpt lat="44.5465" lon="2.46811">
        <ele>545</ele>
        <time>2012-09-18T13:31:17Z</time>
      </trkpt>
      <trkpt lat="44.54657" lon="2.4682">
        <ele>545</ele>
        <time>2012-09-18T13:31:27Z</time>
      </trkpt>
      <trkpt lat="44.54668" lon="2.46826">
        <ele>556</ele>
        <time>2012-09-18T13:31:38Z</time>
      </trkpt>
      <trkpt lat="44.54673" lon="2.46836">
        <ele>556</ele>
        <time>2012-09-18T13:31:56Z</time>
      </trkpt>
      <trkpt lat="44.54682" lon="2.46842">
        <ele>556</ele>
        <time>2012-09-18T13:32:09Z</time>
      </trkpt>
      <trkpt lat="44.54689" lon="2.46852">
        <ele>556</ele>
        <time>2012-09-18T13:32:25Z</time>
      </trkpt>
      <trkpt lat="44.54682" lon="2.46861">
        <ele>556</ele>
        <time>2012-09-18T13:32:49Z</time>
      </trkpt>
      <trkpt lat="44.54675" lon="2.46871">
        <ele>556</ele>
        <time>2012-09-18T13:33:03Z</time>
      </trkpt>
      <trkpt lat="44.54666" lon="2.46874">
        <ele>563</ele>
        <time>2012-09-18T13:33:12Z</time>
      </trkpt>
      <trkpt lat="44.54662" lon="2.46889">
        <ele>563</ele>
        <time>2012-09-18T13:33:28Z</time>
      </trkpt>
      <trkpt lat="44.54657" lon="2.46902">
        <ele>563</ele>
        <time>2012-09-18T13:33:39Z</time>
      </trkpt>
      <trkpt lat="44.54652" lon="2.46914">
        <ele>563</ele>
        <time>2012-09-18T13:33:53Z</time>
      </trkpt>
      <trkpt lat="44.54645" lon="2.46924">
        <ele>563</ele>
        <time>2012-09-18T13:34:04Z</time>
      </trkpt>
      <trkpt lat="44.54655" lon="2.46924">
        <ele>563</ele>
        <time>2012-09-18T13:34:50Z</time>
      </trkpt>
      <trkpt lat="44.54663" lon="2.46917">
        <ele>569</ele>
        <time>2012-09-18T13:35:03Z</time>
      </trkpt>
      <trkpt lat="44.54672" lon="2.46913">
        <ele>569</ele>
        <time>2012-09-18T13:35:15Z</time>
      </trkpt>
      <trkpt lat="44.54682" lon="2.46911">
        <ele>569</ele>
        <time>2012-09-18T13:35:25Z</time>
      </trkpt>
      <trkpt lat="44.54691" lon="2.46906">
        <ele>569</ele>
        <time>2012-09-18T13:35:35Z</time>
      </trkpt>
      <trkpt lat="44.54701" lon="2.46904">
        <ele>569</ele>
        <time>2012-09-18T13:35:47Z</time>
      </trkpt>
      <trkpt lat="44.54711" lon="2.46901">
        <ele>574</ele>
        <time>2012-09-18T13:36:06Z</time>
      </trkpt>
      <trkpt lat="44.5472" lon="2.469">
        <ele>574</ele>
        <time>2012-09-18T13:36:19Z</time>
      </trkpt>
      <trkpt lat="44.5473" lon="2.469">
        <ele>574</ele>
        <time>2012-09-18T13:36:30Z</time>
      </trkpt>
      <trkpt lat="44.54739" lon="2.46894">
        <ele>574</ele>
        <time>2012-09-18T13:36:41Z</time>
      </trkpt>
      <trkpt lat="44.54749" lon="2.46888">
        <ele>574</ele>
        <time>2012-09-18T13:36:53Z</time>
      </trkpt>
      <trkpt lat="44.54759" lon="2.46881">
        <ele>574</ele>
        <time>2012-09-18T13:37:10Z</time>
      </trkpt>
      <trkpt lat="44.54768" lon="2.46879">
        <ele>574</ele>
        <time>2012-09-18T13:37:18Z</time>
      </trkpt>
      <trkpt lat="44.54777" lon="2.46872">
        <ele>584</ele>
        <time>2012-09-18T13:37:31Z</time>
      </trkpt>
      <trkpt lat="44.54787" lon="2.46873">
        <ele>584</ele>
        <time>2012-09-18T13:37:40Z</time>
      </trkpt>
      <trkpt lat="44.54797" lon="2.46872">
        <ele>584</ele>
        <time>2012-09-18T13:39:54Z</time>
      </trkpt>
      <trkpt lat="44.54807" lon="2.4687">
        <ele>584</ele>
        <time>2012-09-18T13:41:17Z</time>
      </trkpt>
      <trkpt lat="44.54817" lon="2.46868">
        <ele>584</ele>
        <time>2012-09-18T13:41:26Z</time>
      </trkpt>
      <trkpt lat="44.54828" lon="2.4687">
        <ele>584</ele>
        <time>2012-09-18T13:41:47Z</time>
      </trkpt>
      <trkpt lat="44.54837" lon="2.46873">
        <ele>590</ele>
        <time>2012-09-18T13:42:00Z</time>
      </trkpt>
      <trkpt lat="44.54849" lon="2.4687">
        <ele>596</ele>
        <time>2012-09-18T13:42:06Z</time>
      </trkpt>
      <trkpt lat="44.54858" lon="2.46873">
        <ele>596</ele>
        <time>2012-09-18T13:42:13Z</time>
      </trkpt>
      <trkpt lat="44.54864" lon="2.46883">
        <ele>596</ele>
        <time>2012-09-18T13:42:30Z</time>
      </trkpt>
      <trkpt lat="44.54871" lon="2.46892">
        <ele>596</ele>
        <time>2012-09-18T13:42:41Z</time>
      </trkpt>
      <trkpt lat="44.54878" lon="2.46902">
        <ele>596</ele>
        <time>2012-09-18T13:42:54Z</time>
      </trkpt>
      <trkpt lat="44.54884" lon="2.46914">
        <ele>596</ele>
        <time>2012-09-18T13:43:05Z</time>
      </trkpt>
      <trkpt lat="44.54891" lon="2.46925">
        <ele>596</ele>
        <time>2012-09-18T13:43:20Z</time>
      </trkpt>
      <trkpt lat="44.54892" lon="2.46939">
        <ele>596</ele>
        <time>2012-09-18T13:45:44Z</time>
      </trkpt>
      <trkpt lat="44.54895" lon="2.46951">
        <ele>603</ele>
        <time>2012-09-18T13:46:00Z</time>
      </trkpt>
      <trkpt lat="44.54898" lon="2.46964">
        <ele>603</ele>
        <time>2012-09-18T13:46:12Z</time>
      </trkpt>
      <trkpt lat="44.54902" lon="2.46977">
        <ele>603</ele>
        <time>2012-09-18T13:46:24Z</time>
      </trkpt>
      <trkpt lat="44.54901" lon="2.46991">
        <ele>603</ele>
        <time>2012-09-18T13:46:40Z</time>
      </trkpt>
      <trkpt lat="44.54905" lon="2.47005">
        <ele>603</ele>
        <time>2012-09-18T13:46:51Z</time>
      </trkpt>
      <trkpt lat="44.54907" lon="2.47019">
        <ele>603</ele>
        <time>2012-09-18T13:47:01Z</time>
      </trkpt>
      <trkpt lat="44.5491" lon="2.47031">
        <ele>603</ele>
        <time>2012-09-18T13:47:15Z</time>
      </trkpt>
      <trkpt lat="44.54913" lon="2.47045">
        <ele>603</ele>
        <time>2012-09-18T13:47:29Z</time>
      </trkpt>
      <trkpt lat="44.54915" lon="2.47059">
        <ele>609</ele>
        <time>2012-09-18T13:47:40Z</time>
      </trkpt>
      <trkpt lat="44.54915" lon="2.47073">
        <ele>603</ele>
        <time>2012-09-18T13:47:54Z</time>
      </trkpt>
      <trkpt lat="44.54921" lon="2.47084">
        <ele>603</ele>
        <time>2012-09-18T13:48:05Z</time>
      </trkpt>
      <trkpt lat="44.54926" lon="2.47097">
        <ele>603</ele>
        <time>2012-09-18T13:48:14Z</time>
      </trkpt>
      <trkpt lat="44.54928" lon="2.4711">
        <ele>616</ele>
        <time>2012-09-18T13:48:26Z</time>
      </trkpt>
      <trkpt lat="44.54931" lon="2.47122">
        <ele>616</ele>
        <time>2012-09-18T13:48:35Z</time>
      </trkpt>
      <trkpt lat="44.54936" lon="2.47135">
        <ele>616</ele>
        <time>2012-09-18T13:48:48Z</time>
      </trkpt>
      <trkpt lat="44.54939" lon="2.47148">
        <ele>616</ele>
        <time>2012-09-18T13:49:01Z</time>
      </trkpt>
      <trkpt lat="44.5494" lon="2.47162">
        <ele>616</ele>
        <time>2012-09-18T13:49:18Z</time>
      </trkpt>
      <trkpt lat="44.5494" lon="2.47176">
        <ele>616</ele>
        <time>2012-09-18T13:49:27Z</time>
      </trkpt>
      <trkpt lat="44.54943" lon="2.47189">
        <ele>607</ele>
        <time>2012-09-18T13:49:40Z</time>
      </trkpt>
      <trkpt lat="44.54943" lon="2.47203">
        <ele>607</ele>
        <time>2012-09-18T13:49:51Z</time>
      </trkpt>
      <trkpt lat="44.54943" lon="2.47216">
        <ele>607</ele>
        <time>2012-09-18T13:50:02Z</time>
      </trkpt>
      <trkpt lat="44.54946" lon="2.47231">
        <ele>607</ele>
        <time>2012-09-18T13:50:15Z</time>
      </trkpt>
      <trkpt lat="44.54944" lon="2.47244">
        <ele>607</ele>
        <time>2012-09-18T13:50:24Z</time>
      </trkpt>
      <trkpt lat="44.54944" lon="2.47258">
        <ele>607</ele>
        <time>2012-09-18T13:50:36Z</time>
      </trkpt>
      <trkpt lat="44.54945" lon="2.47271">
        <ele>607</ele>
        <time>2012-09-18T13:50:47Z</time>
      </trkpt>
      <trkpt lat="44.54944" lon="2.47285">
        <ele>607</ele>
        <time>2012-09-18T13:50:58Z</time>
      </trkpt>
      <trkpt lat="44.54944" lon="2.47302">
        <ele>607</ele>
        <time>2012-09-18T13:51:07Z</time>
      </trkpt>
      <trkpt lat="44.54943" lon="2.47315">
        <ele>607</ele>
        <time>2012-09-18T13:51:17Z</time>
      </trkpt>
      <trkpt lat="44.54942" lon="2.4733">
        <ele>613</ele>
        <time>2012-09-18T13:51:28Z</time>
      </trkpt>
      <trkpt lat="44.54946" lon="2.47343">
        <ele>613</ele>
        <time>2012-09-18T13:51:36Z</time>
      </trkpt>
      <trkpt lat="44.54945" lon="2.47357">
        <ele>613</ele>
        <time>2012-09-18T13:51:51Z</time>
      </trkpt>
      <trkpt lat="44.54943" lon="2.4737">
        <ele>625</ele>
        <time>2012-09-18T13:52:00Z</time>
      </trkpt>
      <trkpt lat="44.5494" lon="2.47383">
        <ele>625</ele>
        <time>2012-09-18T13:52:14Z</time>
      </trkpt>
      <trkpt lat="44.54941" lon="2.47397">
        <ele>625</ele>
        <time>2012-09-18T13:52:25Z</time>
      </trkpt>
      <trkpt lat="44.54942" lon="2.47411">
        <ele>625</ele>
        <time>2012-09-18T13:52:38Z</time>
      </trkpt>
      <trkpt lat="44.54944" lon="2.47425">
        <ele>625</ele>
        <time>2012-09-18T13:52:51Z</time>
      </trkpt>
      <trkpt lat="44.5495" lon="2.47436">
        <ele>625</ele>
        <time>2012-09-18T13:53:00Z</time>
      </trkpt>
      <trkpt lat="44.54958" lon="2.47445">
        <ele>619</ele>
        <time>2012-09-18T13:53:35Z</time>
      </trkpt>
      <trkpt lat="44.54967" lon="2.47452">
        <ele>619</ele>
        <time>2012-09-18T13:53:46Z</time>
      </trkpt>
      <trkpt lat="44.54977" lon="2.47454">
        <ele>619</ele>
        <time>2012-09-18T13:53:59Z</time>
      </trkpt>
      <trkpt lat="44.54986" lon="2.47454">
        <ele>619</ele>
        <time>2012-09-18T13:54:08Z</time>
      </trkpt>
      <trkpt lat="44.54996" lon="2.47457">
        <ele>619</ele>
        <time>2012-09-18T13:54:20Z</time>
      </trkpt>
      <trkpt lat="44.55006" lon="2.4746">
        <ele>619</ele>
        <time>2012-09-18T13:54:31Z</time>
      </trkpt>
      <trkpt lat="44.55016" lon="2.47463">
        <ele>627</ele>
        <time>2012-09-18T13:54:41Z</time>
      </trkpt>
      <trkpt lat="44.55025" lon="2.47469">
        <ele>627</ele>
        <time>2012-09-18T13:54:49Z</time>
      </trkpt>
      <trkpt lat="44.55034" lon="2.47475">
        <ele>627</ele>
        <time>2012-09-18T13:54:58Z</time>
      </trkpt>
      <trkpt lat="44.55043" lon="2.47482">
        <ele>619</ele>
        <time>2012-09-18T13:55:11Z</time>
      </trkpt>
      <trkpt lat="44.55047" lon="2.47494">
        <ele>619</ele>
        <time>2012-09-18T13:55:24Z</time>
      </trkpt>
      <trkpt lat="44.55054" lon="2.47505">
        <ele>619</ele>
        <time>2012-09-18T13:55:33Z</time>
      </trkpt>
      <trkpt lat="44.55059" lon="2.47516">
        <ele>614</ele>
        <time>2012-09-18T13:56:12Z</time>
      </trkpt>
      <trkpt lat="44.55067" lon="2.47525">
        <ele>614</ele>
        <time>2012-09-18T13:56:21Z</time>
      </trkpt>
      <trkpt lat="44.55071" lon="2.47537">
        <ele>614</ele>
        <time>2012-09-18T13:56:31Z</time>
      </trkpt>
      <trkpt lat="44.55076" lon="2.4755">
        <ele>608</ele>
        <time>2012-09-18T13:56:40Z</time>
      </trkpt>
      <trkpt lat="44.55079" lon="2.47563">
        <ele>608</ele>
        <time>2012-09-18T13:56:52Z</time>
      </trkpt>
      <trkpt lat="44.55085" lon="2.47574">
        <ele>608</ele>
        <time>2012-09-18T13:57:01Z</time>
      </trkpt>
      <trkpt lat="44.55089" lon="2.47587">
        <ele>613</ele>
        <time>2012-09-18T13:57:12Z</time>
      </trkpt>
      <trkpt lat="44.55093" lon="2.476">
        <ele>613</ele>
        <time>2012-09-18T13:57:22Z</time>
      </trkpt>
      <trkpt lat="44.55097" lon="2.47613">
        <ele>613</ele>
        <time>2012-09-18T13:57:33Z</time>
      </trkpt>
      <trkpt lat="44.55103" lon="2.47624">
        <ele>613</ele>
        <time>2012-09-18T13:57:43Z</time>
      </trkpt>
      <trkpt lat="44.55107" lon="2.47636">
        <ele>613</ele>
        <time>2012-09-18T13:57:53Z</time>
      </trkpt>
      <trkpt lat="44.55112" lon="2.47648">
        <ele>613</ele>
        <time>2012-09-18T13:58:04Z</time>
      </trkpt>
      <trkpt lat="44.55116" lon="2.4766">
        <ele>613</ele>
        <time>2012-09-18T13:58:12Z</time>
      </trkpt>
      <trkpt lat="44.55122" lon="2.47671">
        <ele>613</ele>
        <time>2012-09-18T13:58:21Z</time>
      </trkpt>
      <trkpt lat="44.55131" lon="2.47677">
        <ele>613</ele>
        <time>2012-09-18T13:58:29Z</time>
      </trkpt>
      <trkpt lat="44.5514" lon="2.47683">
        <ele>613</ele>
        <time>2012-09-18T13:58:38Z</time>
      </trkpt>
      <trkpt lat="44.55149" lon="2.47687">
        <ele>613</ele>
        <time>2012-09-18T13:58:47Z</time>
      </trkpt>
      <trkpt lat="44.5516" lon="2.47687">
        <ele>613</ele>
        <time>2012-09-18T13:58:57Z</time>
      </trkpt>
      <trkpt lat="44.55169" lon="2.47687">
        <ele>613</ele>
        <time>2012-09-18T13:59:07Z</time>
      </trkpt>
      <trkpt lat="44.5518" lon="2.47687">
        <ele>620</ele>
        <time>2012-09-18T13:59:19Z</time>
      </trkpt>
      <trkpt lat="44.55189" lon="2.47691">
        <ele>620</ele>
        <time>2012-09-18T13:59:30Z</time>
      </trkpt>
      <trkpt lat="44.55192" lon="2.47703">
        <ele>620</ele>
        <time>2012-09-18T13:59:43Z</time>
      </trkpt>
      <trkpt lat="44.55191" lon="2.47717">
        <ele>620</ele>
        <time>2012-09-18T13:59:53Z</time>
      </trkpt>
      <trkpt lat="44.55187" lon="2.47729">
        <ele>614</ele>
        <time>2012-09-18T14:00:04Z</time>
      </trkpt>
      <trkpt lat="44.55181" lon="2.47741">
        <ele>620</ele>
        <time>2012-09-18T14:00:16Z</time>
      </trkpt>
      <trkpt lat="44.55175" lon="2.47752">
        <ele>620</ele>
        <time>2012-09-18T14:00:25Z</time>
      </trkpt>
      <trkpt lat="44.55169" lon="2.47763">
        <ele>620</ele>
        <time>2012-09-18T14:00:36Z</time>
      </trkpt>
      <trkpt lat="44.55164" lon="2.47773">
        <ele>620</ele>
        <time>2012-09-18T14:00:45Z</time>
      </trkpt>
      <trkpt lat="44.55158" lon="2.47784">
        <ele>620</ele>
        <time>2012-09-18T14:00:54Z</time>
      </trkpt>
      <trkpt lat="44.55151" lon="2.47794">
        <ele>620</ele>
        <time>2012-09-18T14:01:03Z</time>
      </trkpt>
      <trkpt lat="44.55146" lon="2.47806">
        <ele>620</ele>
        <time>2012-09-18T14:01:13Z</time>
      </trkpt>
      <trkpt lat="44.55139" lon="2.47815">
        <ele>620</ele>
        <time>2012-09-18T14:01:22Z</time>
      </trkpt>
      <trkpt lat="44.55138" lon="2.47829">
        <ele>620</ele>
        <time>2012-09-18T14:01:33Z</time>
      </trkpt>
      <trkpt lat="44.55135" lon="2.47842">
        <ele>620</ele>
        <time>2012-09-18T14:01:47Z</time>
      </trkpt>
      <trkpt lat="44.55129" lon="2.47853">
        <ele>620</ele>
        <time>2012-09-18T14:02:01Z</time>
      </trkpt>
      <trkpt lat="44.55124" lon="2.47865">
        <ele>620</ele>
        <time>2012-09-18T14:02:17Z</time>
      </trkpt>
      <trkpt lat="44.55121" lon="2.47878">
        <ele>620</ele>
        <time>2012-09-18T14:02:25Z</time>
      </trkpt>
      <trkpt lat="44.55118" lon="2.4789">
        <ele>620</ele>
        <time>2012-09-18T14:02:34Z</time>
      </trkpt>
      <trkpt lat="44.55115" lon="2.47903">
        <ele>627</ele>
        <time>2012-09-18T14:02:44Z</time>
      </trkpt>
      <trkpt lat="44.55111" lon="2.47915">
        <ele>627</ele>
        <time>2012-09-18T14:02:56Z</time>
      </trkpt>
      <trkpt lat="44.55108" lon="2.47928">
        <ele>627</ele>
        <time>2012-09-18T14:03:06Z</time>
      </trkpt>
      <trkpt lat="44.55103" lon="2.4794">
        <ele>627</ele>
        <time>2012-09-18T14:03:18Z</time>
      </trkpt>
      <trkpt lat="44.551" lon="2.47952">
        <ele>627</ele>
        <time>2012-09-18T14:03:29Z</time>
      </trkpt>
      <trkpt lat="44.55094" lon="2.47963">
        <ele>620</ele>
        <time>2012-09-18T14:03:42Z</time>
      </trkpt>
      <trkpt lat="44.55088" lon="2.47975">
        <ele>620</ele>
        <time>2012-09-18T14:03:54Z</time>
      </trkpt>
      <trkpt lat="44.55083" lon="2.47986">
        <ele>620</ele>
        <time>2012-09-18T14:04:06Z</time>
      </trkpt>
      <trkpt lat="44.55076" lon="2.47996">
        <ele>628</ele>
        <time>2012-09-18T14:04:15Z</time>
      </trkpt>
      <trkpt lat="44.5507" lon="2.48007">
        <ele>628</ele>
        <time>2012-09-18T14:04:29Z</time>
      </trkpt>
      <trkpt lat="44.55064" lon="2.48018">
        <ele>628</ele>
        <time>2012-09-18T14:04:39Z</time>
      </trkpt>
      <trkpt lat="44.55058" lon="2.48028">
        <ele>623</ele>
        <time>2012-09-18T14:04:49Z</time>
      </trkpt>
      <trkpt lat="44.55054" lon="2.4804">
        <ele>623</ele>
        <time>2012-09-18T14:04:57Z</time>
      </trkpt>
      <trkpt lat="44.55048" lon="2.48052">
        <ele>623</ele>
        <time>2012-09-18T14:05:07Z</time>
      </trkpt>
      <trkpt lat="44.55041" lon="2.48062">
        <ele>633</ele>
        <time>2012-09-18T14:05:15Z</time>
      </trkpt>
      <trkpt lat="44.55036" lon="2.48073">
        <ele>633</ele>
        <time>2012-09-18T14:05:27Z</time>
      </trkpt>
      <trkpt lat="44.55031" lon="2.48084">
        <ele>626</ele>
        <time>2012-09-18T14:05:37Z</time>
      </trkpt>
      <trkpt lat="44.55026" lon="2.48097">
        <ele>626</ele>
        <time>2012-09-18T14:05:48Z</time>
      </trkpt>
      <trkpt lat="44.55026" lon="2.4811">
        <ele>626</ele>
        <time>2012-09-18T14:06:00Z</time>
      </trkpt>
      <trkpt lat="44.55025" lon="2.48126">
        <ele>626</ele>
        <time>2012-09-18T14:06:09Z</time>
      </trkpt>
      <trkpt lat="44.55022" lon="2.48138">
        <ele>626</ele>
        <time>2012-09-18T14:06:20Z</time>
      </trkpt>
      <trkpt lat="44.5502" lon="2.48152">
        <ele>626</ele>
        <time>2012-09-18T14:06:29Z</time>
      </trkpt>
      <trkpt lat="44.5502" lon="2.48166">
        <ele>626</ele>
        <time>2012-09-18T14:06:39Z</time>
      </trkpt>
      <trkpt lat="44.5502" lon="2.48182">
        <ele>639</ele>
        <time>2012-09-18T14:06:50Z</time>
      </trkpt>
      <trkpt lat="44.55019" lon="2.48196">
        <ele>639</ele>
        <time>2012-09-18T14:06:59Z</time>
      </trkpt>
      <trkpt lat="44.55019" lon="2.4821">
        <ele>649</ele>
        <time>2012-09-18T14:07:05Z</time>
      </trkpt>
      <trkpt lat="44.55023" lon="2.48222">
        <ele>649</ele>
        <time>2012-09-18T14:07:18Z</time>
      </trkpt>
      <trkpt lat="44.55024" lon="2.48235">
        <ele>642</ele>
        <time>2012-09-18T14:07:27Z</time>
      </trkpt>
      <trkpt lat="44.55025" lon="2.48249">
        <ele>630</ele>
        <time>2012-09-18T14:07:39Z</time>
      </trkpt>
      <trkpt lat="44.55023" lon="2.48263">
        <ele>630</ele>
        <time>2012-09-18T14:07:50Z</time>
      </trkpt>
      <trkpt lat="44.55021" lon="2.48276">
        <ele>636</ele>
        <time>2012-09-18T14:07:58Z</time>
      </trkpt>
      <trkpt lat="44.55018" lon="2.48291">
        <ele>636</ele>
        <time>2012-09-18T14:08:08Z</time>
      </trkpt>
      <trkpt lat="44.55014" lon="2.48304">
        <ele>642</ele>
        <time>2012-09-18T14:08:18Z</time>
      </trkpt>
      <trkpt lat="44.55011" lon="2.48318">
        <ele>642</ele>
        <time>2012-09-18T14:08:28Z</time>
      </trkpt>
      <trkpt lat="44.55009" lon="2.4833">
        <ele>642</ele>
        <time>2012-09-18T14:08:39Z</time>
      </trkpt>
      <trkpt lat="44.55005" lon="2.48343">
        <ele>642</ele>
        <time>2012-09-18T14:08:49Z</time>
      </trkpt>
      <trkpt lat="44.55002" lon="2.48355">
        <ele>642</ele>
        <time>2012-09-18T14:09:00Z</time>
      </trkpt>
      <trkpt lat="44.54998" lon="2.48368">
        <ele>651</ele>
        <time>2012-09-18T14:09:09Z</time>
      </trkpt>
      <trkpt lat="44.54995" lon="2.48381">
        <ele>651</ele>
        <time>2012-09-18T14:09:16Z</time>
      </trkpt>
      <trkpt lat="44.54994" lon="2.48395">
        <ele>638</ele>
        <time>2012-09-18T14:09:29Z</time>
      </trkpt>
      <trkpt lat="44.54992" lon="2.48408">
        <ele>638</ele>
        <time>2012-09-18T14:09:38Z</time>
      </trkpt>
      <trkpt lat="44.5499" lon="2.48422">
        <ele>632</ele>
        <time>2012-09-18T14:09:50Z</time>
      </trkpt>
      <trkpt lat="44.54986" lon="2.48434">
        <ele>644</ele>
        <time>2012-09-18T14:09:58Z</time>
      </trkpt>
      <trkpt lat="44.54979" lon="2.48444">
        <ele>644</ele>
        <time>2012-09-18T14:10:09Z</time>
      </trkpt>
      <trkpt lat="44.54972" lon="2.48452">
        <ele>644</ele>
        <time>2012-09-18T14:10:19Z</time>
      </trkpt>
      <trkpt lat="44.54962" lon="2.48452">
        <ele>644</ele>
        <time>2012-09-18T14:10:29Z</time>
      </trkpt>
      <trkpt lat="44.54953" lon="2.48459">
        <ele>644</ele>
        <time>2012-09-18T14:10:39Z</time>
      </trkpt>
      <trkpt lat="44.54945" lon="2.48466">
        <ele>644</ele>
        <time>2012-09-18T14:10:52Z</time>
      </trkpt>
      <trkpt lat="44.54935" lon="2.48468">
        <ele>644</ele>
        <time>2012-09-18T14:11:05Z</time>
      </trkpt>
      <trkpt lat="44.54926" lon="2.4847">
        <ele>644</ele>
        <time>2012-09-18T14:11:15Z</time>
      </trkpt>
      <trkpt lat="44.54916" lon="2.48469">
        <ele>644</ele>
        <time>2012-09-18T14:11:26Z</time>
      </trkpt>
      <trkpt lat="44.54906" lon="2.48469">
        <ele>644</ele>
        <time>2012-09-18T14:11:38Z</time>
      </trkpt>
      <trkpt lat="44.54896" lon="2.48473">
        <ele>644</ele>
        <time>2012-09-18T14:11:51Z</time>
      </trkpt>
      <trkpt lat="44.54888" lon="2.48479">
        <ele>644</ele>
        <time>2012-09-18T14:12:01Z</time>
      </trkpt>
      <trkpt lat="44.54878" lon="2.48482">
        <ele>644</ele>
        <time>2012-09-18T14:12:10Z</time>
      </trkpt>
      <trkpt lat="44.54869" lon="2.48488">
        <ele>644</ele>
        <time>2012-09-18T14:12:22Z</time>
      </trkpt>
      <trkpt lat="44.54865" lon="2.48501">
        <ele>644</ele>
        <time>2012-09-18T14:12:33Z</time>
      </trkpt>
      <trkpt lat="44.54862" lon="2.48515">
        <ele>644</ele>
        <time>2012-09-18T14:12:43Z</time>
      </trkpt>
      <trkpt lat="44.54863" lon="2.48529">
        <ele>650</ele>
        <time>2012-09-18T14:12:53Z</time>
      </trkpt>
      <trkpt lat="44.54864" lon="2.48542">
        <ele>650</ele>
        <time>2012-09-18T14:13:03Z</time>
      </trkpt>
      <trkpt lat="44.54867" lon="2.48556">
        <ele>650</ele>
        <time>2012-09-18T14:13:11Z</time>
      </trkpt>
      <trkpt lat="44.54871" lon="2.48567">
        <ele>663</ele>
        <time>2012-09-18T14:13:23Z</time>
      </trkpt>
      <trkpt lat="44.54872" lon="2.48582">
        <ele>663</ele>
        <time>2012-09-18T14:13:33Z</time>
      </trkpt>
      <trkpt lat="44.54874" lon="2.48594">
        <ele>663</ele>
        <time>2012-09-18T14:13:45Z</time>
      </trkpt>
      <trkpt lat="44.54874" lon="2.48608">
        <ele>655</ele>
        <time>2012-09-18T14:13:55Z</time>
      </trkpt>
      <trkpt lat="44.54873" lon="2.48622">
        <ele>655</ele>
        <time>2012-09-18T14:14:08Z</time>
      </trkpt>
      <trkpt lat="44.5487" lon="2.48636">
        <ele>648</ele>
        <time>2012-09-18T14:14:19Z</time>
      </trkpt>
      <trkpt lat="44.54869" lon="2.48649">
        <ele>648</ele>
        <time>2012-09-18T14:14:27Z</time>
      </trkpt>
      <trkpt lat="44.54867" lon="2.48663">
        <ele>648</ele>
        <time>2012-09-18T14:14:38Z</time>
      </trkpt>
      <trkpt lat="44.54865" lon="2.48676">
        <ele>648</ele>
        <time>2012-09-18T14:14:49Z</time>
      </trkpt>
      <trkpt lat="44.54865" lon="2.4869">
        <ele>648</ele>
        <time>2012-09-18T14:15:04Z</time>
      </trkpt>
      <trkpt lat="44.54863" lon="2.48706">
        <ele>648</ele>
        <time>2012-09-18T14:15:14Z</time>
      </trkpt>
      <trkpt lat="44.54862" lon="2.4872">
        <ele>656</ele>
        <time>2012-09-18T14:15:24Z</time>
      </trkpt>
      <trkpt lat="44.54862" lon="2.48734">
        <ele>663</ele>
        <time>2012-09-18T14:15:43Z</time>
      </trkpt>
      <trkpt lat="44.54856" lon="2.48744">
        <ele>663</ele>
        <time>2012-09-18T14:16:19Z</time>
      </trkpt>
      <trkpt lat="44.54849" lon="2.48753">
        <ele>663</ele>
        <time>2012-09-18T14:16:55Z</time>
      </trkpt>
      <trkpt lat="44.54842" lon="2.48764">
        <ele>663</ele>
        <time>2012-09-18T14:17:07Z</time>
      </trkpt>
      <trkpt lat="44.54846" lon="2.48777">
        <ele>658</ele>
        <time>2012-09-18T14:17:20Z</time>
      </trkpt>
      <trkpt lat="44.54855" lon="2.48782">
        <ele>666</ele>
        <time>2012-09-18T14:17:27Z</time>
      </trkpt>
    </trkseg>
  </trk>
</gpx>